GTI41 KRDU-KJFK
Flight info
| Callsign | GTI41 |
|---|---|
| Flight time | 1h 6m |
| Altitude | 35000 |
| Route | HURIC4 FEBEL GUILD SAWED Q108 SIE CAMRN5 |
| Aircraft | B77L/H-SDE1E2E3FGHIJ2J3J4J5M1RWXY/LB1D1 |
Departure
| Time | 2026-05-07 02:11 |
|---|---|
| Airport | Raleigh-Durham International Airport (KRDU) |
Arrival
| Time | 2026-05-07 03:18 |
|---|---|
| Airport | John F. Kennedy International Airport (KJFK) |
| Time | Latitude | Longitude | Altitude | Speed | Heading |
|---|---|---|---|---|---|
| 2026-05-07 01:33 | 35.88733 | -78.78046 | 396 ft | 0 kts | 134° |
| 2026-05-07 02:01 | 35.88736 | -78.78049 | 396 ft | 3 kts | 134° |
| 2026-05-07 02:01 | 35.88754 | -78.78075 | 395 ft | 4 kts | 125° |
| 2026-05-07 02:01 | 35.88767 | -78.78102 | 390 ft | 4 kts | 113° |
| 2026-05-07 02:01 | 35.88775 | -78.78134 | 393 ft | 4 kts | 90° |
| 2026-05-07 02:02 | 35.88769 | -78.78161 | 395 ft | 2 kts | 46° |
| 2026-05-07 02:02 | 35.88768 | -78.78162 | 396 ft | 0 kts | 45° |
| 2026-05-07 02:05 | 35.88771 | -78.78159 | 399 ft | 5 kts | 45° |
| 2026-05-07 02:05 | 35.88817 | -78.78104 | 393 ft | 10 kts | 44° |
| 2026-05-07 02:05 | 35.88867 | -78.78044 | 392 ft | 10 kts | 46° |
| 2026-05-07 02:06 | 35.88911 | -78.77976 | 394 ft | 11 kts | 57° |
| 2026-05-07 02:06 | 35.88951 | -78.77869 | 393 ft | 16 kts | 58° |
| 2026-05-07 02:06 | 35.89028 | -78.77764 | 393 ft | 17 kts | 45° |
| 2026-05-07 02:06 | 35.89108 | -78.77666 | 394 ft | 13 kts | 45° |
| 2026-05-07 02:07 | 35.89158 | -78.77605 | 393 ft | 6 kts | 42° |
| 2026-05-07 02:07 | 35.89220 | -78.77635 | 394 ft | 5 kts | 317° |
| 2026-05-07 02:07 | 35.89244 | -78.77663 | 392 ft | 5 kts | 316° |
| 2026-05-07 02:08 | 35.89266 | -78.77690 | 394 ft | 5 kts | 316° |
| 2026-05-07 02:08 | 35.89279 | -78.77705 | 394 ft | 0 kts | 317° |
| 2026-05-07 02:09 | 35.89283 | -78.77709 | 396 ft | 4 kts | 316° |
| 2026-05-07 02:10 | 35.89336 | -78.77777 | 393 ft | 16 kts | 307° |
| 2026-05-07 02:10 | 35.89334 | -78.77860 | 394 ft | 10 kts | 236° |
| 2026-05-07 02:10 | 35.89326 | -78.77872 | 393 ft | 2 kts | 227° |
| 2026-05-07 02:10 | 35.89155 | -78.78084 | 390 ft | 84 kts | 225° |
| 2026-05-07 02:11 | 35.88487 | -78.78906 | 395 ft | 186 kts | 224° |
| 2026-05-07 02:11 | 35.87440 | -78.80213 | 901 ft | 229 kts | 226° |
| 2026-05-07 02:11 | 35.86320 | -78.81622 | 2285 ft | 237 kts | 226° |
| 2026-05-07 02:11 | 35.85090 | -78.83141 | 3236 ft | 248 kts | 226° |
| 2026-05-07 02:12 | 35.83945 | -78.84530 | 3901 ft | 214 kts | 226° |
| 2026-05-07 02:12 | 35.82918 | -78.85743 | 4724 ft | 202 kts | 226° |
| 2026-05-07 02:12 | 35.81850 | -78.86969 | 5534 ft | 216 kts | 226° |
| 2026-05-07 02:12 | 35.80727 | -78.88215 | 5930 ft | 219 kts | 226° |
| 2026-05-07 02:13 | 35.79571 | -78.89492 | 5979 ft | 231 kts | 226° |
| 2026-05-07 02:13 | 35.78362 | -78.90829 | 6005 ft | 240 kts | 226° |
| 2026-05-07 02:13 | 35.77114 | -78.92208 | 5997 ft | 241 kts | 226° |
| 2026-05-07 02:13 | 35.75847 | -78.93606 | 5988 ft | 242 kts | 226° |
| 2026-05-07 02:14 | 35.74610 | -78.94969 | 5983 ft | 242 kts | 226° |
| 2026-05-07 02:14 | 35.73356 | -78.96346 | 5997 ft | 242 kts | 226° |
| 2026-05-07 02:14 | 35.72094 | -78.97717 | 6002 ft | 243 kts | 226° |
| 2026-05-07 02:14 | 35.70822 | -78.99088 | 5977 ft | 243 kts | 226° |
| 2026-05-07 02:15 | 35.69551 | -79.00456 | 6004 ft | 243 kts | 225° |
| 2026-05-07 02:15 | 35.68045 | -79.01481 | 6007 ft | 262 kts | 197° |
| 2026-05-07 02:15 | 35.66167 | -79.01417 | 6004 ft | 281 kts | 171° |
| 2026-05-07 02:15 | 35.64357 | -79.00391 | 6008 ft | 294 kts | 149° |
| 2026-05-07 02:16 | 35.62933 | -78.98547 | 5982 ft | 304 kts | 123° |
| 2026-05-07 02:16 | 35.62311 | -78.96063 | 6312 ft | 309 kts | 90° |
| 2026-05-07 02:16 | 35.62717 | -78.93473 | 7087 ft | 312 kts | 62° |
| 2026-05-07 02:16 | 35.63762 | -78.91134 | 7835 ft | 316 kts | 56° |
| 2026-05-07 02:17 | 35.64895 | -78.88792 | 8679 ft | 321 kts | 56° |
| 2026-05-07 02:17 | 35.66051 | -78.86423 | 9589 ft | 325 kts | 56° |
| 2026-05-07 02:17 | 35.67222 | -78.84022 | 10367 ft | 332 kts | 56° |
| 2026-05-07 02:17 | 35.68442 | -78.81514 | 10802 ft | 353 kts | 56° |
| 2026-05-07 02:18 | 35.69747 | -78.78818 | 11008 ft | 381 kts | 57° |
| 2026-05-07 02:18 | 35.71142 | -78.75914 | 11245 ft | 406 kts | 57° |
| 2026-05-07 02:18 | 35.72591 | -78.72876 | 11873 ft | 417 kts | 57° |
| 2026-05-07 02:18 | 35.74060 | -78.69779 | 11978 ft | 420 kts | 57° |
| 2026-05-07 02:19 | 35.75530 | -78.66671 | 11978 ft | 419 kts | 57° |
| 2026-05-07 02:19 | 35.76996 | -78.63569 | 12045 ft | 419 kts | 57° |
| 2026-05-07 02:19 | 35.78467 | -78.60456 | 12842 ft | 423 kts | 57° |
| 2026-05-07 02:19 | 35.79942 | -78.57333 | 13862 ft | 422 kts | 57° |
| 2026-05-07 02:20 | 35.81424 | -78.54195 | 14704 ft | 425 kts | 57° |
| 2026-05-07 02:20 | 35.82918 | -78.51032 | 15419 ft | 432 kts | 57° |
| 2026-05-07 02:20 | 35.84441 | -78.47805 | 16099 ft | 438 kts | 57° |
| 2026-05-07 02:20 | 35.85982 | -78.44532 | 16825 ft | 444 kts | 57° |
| 2026-05-07 02:21 | 35.87537 | -78.41225 | 17014 ft | 447 kts | 57° |
| 2026-05-07 02:21 | 35.89004 | -78.37833 | 17002 ft | 448 kts | 59° |
| 2026-05-07 02:21 | 35.90527 | -78.34502 | 17011 ft | 444 kts | 56° |
| 2026-05-07 02:21 | 35.91887 | -78.31056 | 17366 ft | 453 kts | 69° |
| 2026-05-07 02:22 | 35.92526 | -78.27210 | 18077 ft | 461 kts | 83° |
| 2026-05-07 02:22 | 35.92809 | -78.23240 | 18598 ft | 470 kts | 83° |
| 2026-05-07 02:22 | 35.93112 | -78.19239 | 19097 ft | 477 kts | 82° |
| 2026-05-07 02:22 | 35.93476 | -78.15148 | 19725 ft | 481 kts | 82° |
| 2026-05-07 02:23 | 35.93868 | -78.11040 | 20394 ft | 484 kts | 82° |
| 2026-05-07 02:23 | 35.94271 | -78.06896 | 20989 ft | 489 kts | 82° |
| 2026-05-07 02:23 | 35.94676 | -78.02710 | 21557 ft | 494 kts | 82° |
| 2026-05-07 02:23 | 35.95081 | -77.98473 | 22110 ft | 500 kts | 82° |
| 2026-05-07 02:24 | 35.95487 | -77.94193 | 22647 ft | 504 kts | 82° |
| 2026-05-07 02:24 | 35.96121 | -77.89964 | 23212 ft | 502 kts | 70° |
| 2026-05-07 02:24 | 35.97644 | -77.86124 | 23667 ft | 496 kts | 51° |
| 2026-05-07 02:24 | 35.99677 | -77.82686 | 23991 ft | 499 kts | 50° |
| 2026-05-07 02:25 | 36.01720 | -77.79181 | 24395 ft | 506 kts | 51° |
| 2026-05-07 02:25 | 36.03739 | -77.75615 | 24906 ft | 508 kts | 51° |
| 2026-05-07 02:25 | 36.05749 | -77.71997 | 25418 ft | 511 kts | 52° |
| 2026-05-07 02:25 | 36.07753 | -77.68348 | 25896 ft | 515 kts | 52° |
| 2026-05-07 02:26 | 36.09764 | -77.64674 | 26337 ft | 519 kts | 52° |
| 2026-05-07 02:26 | 36.11107 | -77.62216 | 26661 ft | 522 kts | 52° |
| 2026-05-07 02:26 | 36.13151 | -77.58479 | 27026 ft | 527 kts | 52° |
| 2026-05-07 02:26 | 36.15207 | -77.54720 | 27592 ft | 528 kts | 52° |
| 2026-05-07 02:27 | 36.17268 | -77.50949 | 28089 ft | 530 kts | 52° |
| 2026-05-07 02:27 | 36.19342 | -77.47153 | 28482 ft | 535 kts | 52° |
| 2026-05-07 02:27 | 36.21432 | -77.43327 | 28846 ft | 539 kts | 52° |
| 2026-05-07 02:27 | 36.23536 | -77.39468 | 29220 ft | 543 kts | 52° |
| 2026-05-07 02:28 | 36.25657 | -77.35572 | 29646 ft | 545 kts | 52° |
| 2026-05-07 02:28 | 36.27774 | -77.31680 | 30188 ft | 544 kts | 52° |
| 2026-05-07 02:28 | 36.29926 | -77.27832 | 30639 ft | 542 kts | 49° |
| 2026-05-07 02:28 | 36.32291 | -77.24213 | 31032 ft | 540 kts | 43° |
| 2026-05-07 02:29 | 36.34902 | -77.20870 | 31298 ft | 538 kts | 36° |
| 2026-05-07 02:29 | 36.37683 | -77.17789 | 31758 ft | 535 kts | 34° |
| 2026-05-07 02:29 | 36.40473 | -77.14732 | 32263 ft | 533 kts | 33° |
| 2026-05-07 02:29 | 36.43249 | -77.11695 | 32716 ft | 532 kts | 33° |
| 2026-05-07 02:30 | 36.46016 | -77.08642 | 33124 ft | 533 kts | 33° |
| 2026-05-07 02:30 | 36.48775 | -77.05566 | 33502 ft | 533 kts | 33° |
| 2026-05-07 02:30 | 36.51529 | -77.02478 | 33916 ft | 533 kts | 32° |
| 2026-05-07 02:30 | 36.54276 | -76.99386 | 34308 ft | 533 kts | 32° |
| 2026-05-07 02:31 | 36.57028 | -76.96284 | 34632 ft | 533 kts | 32° |
| 2026-05-07 02:31 | 36.59770 | -76.93191 | 34963 ft | 533 kts | 31° |
| 2026-05-07 02:31 | 36.65296 | -76.86960 | 34954 ft | 535 kts | 31° |
| 2026-05-07 02:32 | 36.70757 | -76.80770 | 34942 ft | 525 kts | 31° |
| 2026-05-07 02:32 | 36.76161 | -76.74647 | 34951 ft | 525 kts | 31° |
| 2026-05-07 02:33 | 36.81569 | -76.68520 | 34954 ft | 526 kts | 31° |
| 2026-05-07 02:33 | 36.86985 | -76.62367 | 34938 ft | 527 kts | 31° |
| 2026-05-07 02:34 | 36.92413 | -76.56183 | 34936 ft | 528 kts | 31° |
| 2026-05-07 02:34 | 36.97844 | -76.49980 | 34898 ft | 530 kts | 32° |
| 2026-05-07 02:35 | 37.03339 | -76.43702 | 34918 ft | 539 kts | 32° |
| 2026-05-07 02:35 | 37.08905 | -76.37323 | 34908 ft | 543 kts | 32° |
| 2026-05-07 02:36 | 37.14471 | -76.30916 | 34905 ft | 543 kts | 32° |
| 2026-05-07 02:36 | 37.20004 | -76.24542 | 34914 ft | 545 kts | 32° |
| 2026-05-07 02:37 | 37.25655 | -76.18029 | 34926 ft | 551 kts | 32° |
| 2026-05-07 02:37 | 37.31263 | -76.11544 | 34916 ft | 552 kts | 33° |
| 2026-05-07 02:38 | 37.36896 | -76.05008 | 34952 ft | 550 kts | 33° |
| 2026-05-07 02:38 | 37.42508 | -75.98490 | 34927 ft | 549 kts | 33° |
| 2026-05-07 02:39 | 37.48115 | -75.91966 | 34917 ft | 549 kts | 33° |
| 2026-05-07 02:39 | 37.53832 | -75.85658 | 34919 ft | 540 kts | 27° |
| 2026-05-07 02:40 | 37.60053 | -75.80643 | 34919 ft | 527 kts | 19° |
| 2026-05-07 02:40 | 37.66400 | -75.76007 | 34909 ft | 527 kts | 20° |
| 2026-05-07 02:41 | 37.72720 | -75.71289 | 35566 ft | 528 kts | 25° |
| 2026-05-07 02:41 | 37.75861 | -75.68913 | 34859 ft | 525 kts | 21° |
| 2026-05-07 02:41 | 37.78984 | -75.66547 | 34931 ft | 524 kts | 21° |
| 2026-05-07 02:42 | 37.85263 | -75.61747 | 34925 ft | 532 kts | 24° |
| 2026-05-07 02:42 | 37.91422 | -75.56439 | 34923 ft | 538 kts | 25° |
| 2026-05-07 02:43 | 37.97578 | -75.51019 | 34915 ft | 539 kts | 25° |
| 2026-05-07 02:43 | 38.03781 | -75.45621 | 34899 ft | 541 kts | 24° |
| 2026-05-07 02:44 | 38.10042 | -75.40344 | 34896 ft | 538 kts | 23° |
| 2026-05-07 02:44 | 38.16359 | -75.35267 | 34897 ft | 538 kts | 23° |
| 2026-05-07 02:45 | 38.22740 | -75.30386 | 34897 ft | 527 kts | 15° |
| 2026-05-07 02:45 | 38.26078 | -75.28604 | 34908 ft | 516 kts | 9° |
| 2026-05-07 02:45 | 38.29474 | -75.27228 | 34907 ft | 508 kts | 4° |
| 2026-05-07 02:46 | 38.32893 | -75.26326 | 34901 ft | 497 kts | 358° |
| 2026-05-07 02:46 | 38.36310 | -75.25679 | 34903 ft | 496 kts | 357° |
| 2026-05-07 02:46 | 38.43138 | -75.24373 | 34938 ft | 498 kts | 357° |
| 2026-05-07 02:47 | 38.49992 | -75.22949 | 34909 ft | 499 kts | 358° |
| 2026-05-07 02:47 | 38.56849 | -75.21477 | 34897 ft | 500 kts | 358° |
| 2026-05-07 02:48 | 38.63701 | -75.20009 | 34933 ft | 500 kts | 358° |
| 2026-05-07 02:48 | 38.70343 | -75.17285 | 34859 ft | 510 kts | 13° |
| 2026-05-07 02:49 | 38.73502 | -75.15222 | 34540 ft | 510 kts | 18° |
| 2026-05-07 02:49 | 38.76529 | -75.12753 | 33787 ft | 524 kts | 26° |
| 2026-05-07 02:49 | 38.79456 | -75.09905 | 32934 ft | 530 kts | 28° |
| 2026-05-07 02:49 | 38.82359 | -75.06985 | 32276 ft | 529 kts | 28° |
| 2026-05-07 02:50 | 38.85236 | -75.04074 | 31744 ft | 526 kts | 28° |
| 2026-05-07 02:50 | 38.88112 | -75.01188 | 31170 ft | 522 kts | 28° |
| 2026-05-07 02:50 | 38.90966 | -74.98354 | 30718 ft | 517 kts | 28° |
| 2026-05-07 02:50 | 38.93808 | -74.95553 | 30682 ft | 512 kts | 34° |
| 2026-05-07 02:51 | 38.96616 | -74.92797 | 29743 ft | 507 kts | 28° |
| 2026-05-07 02:51 | 38.99394 | -74.90047 | 29280 ft | 501 kts | 28° |
| 2026-05-07 02:51 | 39.02142 | -74.87340 | 28807 ft | 495 kts | 28° |
| 2026-05-07 02:51 | 39.04866 | -74.84669 | 28361 ft | 490 kts | 28° |
| 2026-05-07 02:52 | 39.07557 | -74.82020 | 27909 ft | 485 kts | 28° |
| 2026-05-07 02:52 | 39.10218 | -74.79386 | 27464 ft | 481 kts | 29° |
| 2026-05-07 02:52 | 39.12819 | -74.76681 | 27027 ft | 480 kts | 31° |
| 2026-05-07 02:52 | 39.15368 | -74.73914 | 26590 ft | 480 kts | 32° |
| 2026-05-07 02:53 | 39.17917 | -74.71113 | 26142 ft | 484 kts | 32° |
| 2026-05-07 02:53 | 39.20492 | -74.68287 | 25416 ft | 488 kts | 32° |
| 2026-05-07 02:53 | 39.23088 | -74.65450 | 24769 ft | 489 kts | 32° |
| 2026-05-07 02:53 | 39.25683 | -74.62623 | 24281 ft | 487 kts | 32° |
| 2026-05-07 02:54 | 39.28260 | -74.59819 | 23866 ft | 482 kts | 32° |
| 2026-05-07 02:54 | 39.30811 | -74.57046 | 23470 ft | 477 kts | 32° |
| 2026-05-07 02:54 | 39.33308 | -74.54333 | 22945 ft | 473 kts | 33° |
| 2026-05-07 02:54 | 39.35849 | -74.51572 | 22440 ft | 469 kts | 33° |
| 2026-05-07 02:55 | 39.38339 | -74.48863 | 21947 ft | 466 kts | 33° |
| 2026-05-07 02:55 | 39.40802 | -74.46179 | 21465 ft | 462 kts | 33° |
| 2026-05-07 02:55 | 39.43250 | -74.43509 | 21040 ft | 458 kts | 34° |
| 2026-05-07 02:55 | 39.45681 | -74.40854 | 20578 ft | 455 kts | 34° |
| 2026-05-07 02:56 | 39.48090 | -74.38222 | 20133 ft | 451 kts | 34° |
| 2026-05-07 02:56 | 39.50474 | -74.35615 | 19690 ft | 448 kts | 34° |
| 2026-05-07 02:56 | 39.52847 | -74.33019 | 19277 ft | 445 kts | 35° |
| 2026-05-07 02:56 | 39.55205 | -74.30437 | 18945 ft | 442 kts | 35° |
| 2026-05-07 02:57 | 39.57565 | -74.27851 | 18875 ft | 445 kts | 35° |
| 2026-05-07 02:57 | 39.59896 | -74.25293 | 18702 ft | 446 kts | 35° |
| 2026-05-07 02:57 | 39.62264 | -74.22693 | 18415 ft | 445 kts | 36° |
| 2026-05-07 02:57 | 39.64618 | -74.20102 | 18097 ft | 442 kts | 36° |
| 2026-05-07 02:58 | 39.66943 | -74.17541 | 17763 ft | 437 kts | 36° |
| 2026-05-07 02:58 | 39.69245 | -74.15004 | 17493 ft | 432 kts | 36° |
| 2026-05-07 02:58 | 39.71525 | -74.12491 | 17211 ft | 429 kts | 36° |
| 2026-05-07 02:58 | 39.73791 | -74.09991 | 16938 ft | 426 kts | 36° |
| 2026-05-07 02:59 | 39.76045 | -74.07501 | 16667 ft | 425 kts | 36° |
| 2026-05-07 02:59 | 39.78294 | -74.05017 | 16415 ft | 424 kts | 36° |
| 2026-05-07 02:59 | 39.80543 | -74.02530 | 16169 ft | 425 kts | 36° |
| 2026-05-07 02:59 | 39.82798 | -74.00033 | 15877 ft | 426 kts | 36° |
| 2026-05-07 03:00 | 39.85118 | -73.97638 | 15568 ft | 422 kts | 29° |
| 2026-05-07 03:00 | 39.87629 | -73.95720 | 15303 ft | 418 kts | 22° |
| 2026-05-07 03:00 | 39.90221 | -73.94018 | 15047 ft | 416 kts | 21° |
| 2026-05-07 03:00 | 39.92810 | -73.92338 | 14798 ft | 416 kts | 21° |
| 2026-05-07 03:01 | 39.95383 | -73.90604 | 14520 ft | 416 kts | 23° |
| 2026-05-07 03:01 | 39.97934 | -73.88818 | 14265 ft | 416 kts | 24° |
| 2026-05-07 03:01 | 40.00475 | -73.87011 | 14013 ft | 416 kts | 24° |
| 2026-05-07 03:01 | 40.02977 | -73.85106 | 13722 ft | 418 kts | 30° |
| 2026-05-07 03:02 | 40.05315 | -73.82839 | 13439 ft | 419 kts | 35° |
| 2026-05-07 03:02 | 40.07566 | -73.80436 | 13249 ft | 416 kts | 36° |
| 2026-05-07 03:02 | 40.09810 | -73.78066 | 12995 ft | 414 kts | 35° |
| 2026-05-07 03:02 | 40.12068 | -73.75764 | 12720 ft | 411 kts | 34° |
| 2026-05-07 03:03 | 40.14336 | -73.73493 | 12468 ft | 409 kts | 34° |
| 2026-05-07 03:03 | 40.15834 | -73.72001 | 12305 ft | 408 kts | 34° |
| 2026-05-07 03:03 | 40.18843 | -73.68990 | 11950 ft | 406 kts | 34° |
| 2026-05-07 03:03 | 40.21071 | -73.66750 | 11707 ft | 402 kts | 34° |
| 2026-05-07 03:04 | 40.23282 | -73.64534 | 11459 ft | 399 kts | 34° |
| 2026-05-07 03:04 | 40.25430 | -73.62365 | 11211 ft | 391 kts | 34° |
| 2026-05-07 03:04 | 40.27590 | -73.60189 | 10957 ft | 383 kts | 34° |
| 2026-05-07 03:04 | 40.29679 | -73.58085 | 10696 ft | 375 kts | 34° |
| 2026-05-07 03:05 | 40.31727 | -73.56037 | 10450 ft | 362 kts | 31° |
| 2026-05-07 03:05 | 40.33901 | -73.54613 | 10193 ft | 339 kts | 6° |
| 2026-05-07 03:05 | 40.36136 | -73.54096 | 10024 ft | 320 kts | 2° |
| 2026-05-07 03:05 | 40.38302 | -73.53606 | 9832 ft | 312 kts | 2° |
| 2026-05-07 03:06 | 40.40420 | -73.53102 | 9604 ft | 306 kts | 2° |
| 2026-05-07 03:06 | 40.42469 | -73.52610 | 9401 ft | 302 kts | 2° |
| 2026-05-07 03:06 | 40.44533 | -73.52114 | 9198 ft | 302 kts | 2° |
| 2026-05-07 03:06 | 40.46599 | -73.51617 | 9017 ft | 302 kts | 2° |
| 2026-05-07 03:07 | 40.48662 | -73.51117 | 8827 ft | 302 kts | 3° |
| 2026-05-07 03:07 | 40.50727 | -73.50614 | 8641 ft | 302 kts | 3° |
| 2026-05-07 03:07 | 40.52792 | -73.50110 | 8451 ft | 302 kts | 3° |
| 2026-05-07 03:07 | 40.54856 | -73.49606 | 8260 ft | 301 kts | 3° |
| 2026-05-07 03:08 | 40.56910 | -73.49124 | 8131 ft | 298 kts | 1° |
| 2026-05-07 03:08 | 40.58959 | -73.48659 | 7905 ft | 303 kts | 3° |
| 2026-05-07 03:08 | 40.61027 | -73.48082 | 7711 ft | 302 kts | 6° |
| 2026-05-07 03:08 | 40.63072 | -73.47496 | 7425 ft | 298 kts | 5° |
| 2026-05-07 03:09 | 40.65076 | -73.46986 | 7287 ft | 289 kts | 2° |
| 2026-05-07 03:09 | 40.67040 | -73.46555 | 7131 ft | 285 kts | 1° |
| 2026-05-07 03:09 | 40.69009 | -73.46020 | 6905 ft | 294 kts | 14° |
| 2026-05-07 03:09 | 40.70914 | -73.44928 | 6746 ft | 295 kts | 21° |
| 2026-05-07 03:10 | 40.72748 | -73.43698 | 6378 ft | 296 kts | 22° |
| 2026-05-07 03:10 | 40.74568 | -73.42664 | 6119 ft | 281 kts | 5° |
| 2026-05-07 03:10 | 40.76433 | -73.42811 | 5928 ft | 262 kts | 328° |
| 2026-05-07 03:10 | 40.77846 | -73.44172 | 5695 ft | 253 kts | 308° |
| 2026-05-07 03:11 | 40.79066 | -73.45898 | 5153 ft | 258 kts | 298° |
| 2026-05-07 03:11 | 40.80003 | -73.47828 | 4961 ft | 246 kts | 294° |
| 2026-05-07 03:11 | 40.80880 | -73.49785 | 4552 ft | 247 kts | 293° |
| 2026-05-07 03:11 | 40.81714 | -73.51670 | 4173 ft | 227 kts | 288° |
| 2026-05-07 03:12 | 40.82030 | -73.53554 | 3917 ft | 198 kts | 265° |
| 2026-05-07 03:12 | 40.81893 | -73.55284 | 3763 ft | 186 kts | 252° |
| 2026-05-07 03:12 | 40.81493 | -73.56926 | 3641 ft | 191 kts | 250° |
| 2026-05-07 03:12 | 40.81197 | -73.58045 | 3530 ft | 191 kts | 249° |
| 2026-05-07 03:13 | 40.80752 | -73.59719 | 3357 ft | 199 kts | 249° |
| 2026-05-07 03:13 | 40.80292 | -73.61451 | 3167 ft | 199 kts | 249° |
| 2026-05-07 03:13 | 40.79610 | -73.62965 | 3010 ft | 191 kts | 225° |
| 2026-05-07 03:13 | 40.78564 | -73.64054 | 2985 ft | 193 kts | 221° |
| 2026-05-07 03:14 | 40.77486 | -73.65147 | 2970 ft | 199 kts | 220° |
| 2026-05-07 03:14 | 40.76282 | -73.66240 | 2697 ft | 202 kts | 216° |
| 2026-05-07 03:14 | 40.74096 | -73.67973 | 2229 ft | 171 kts | 214° |
| 2026-05-07 03:15 | 40.73104 | -73.68752 | 1991 ft | 161 kts | 215° |
| 2026-05-07 03:15 | 40.72172 | -73.69484 | 1779 ft | 151 kts | 214° |
| 2026-05-07 03:15 | 40.71308 | -73.70162 | 1572 ft | 138 kts | 215° |
| 2026-05-07 03:15 | 40.70501 | -73.70798 | 1429 ft | 138 kts | 214° |
| 2026-05-07 03:16 | 40.69676 | -73.71446 | 1239 ft | 140 kts | 213° |
| 2026-05-07 03:16 | 40.68821 | -73.72117 | 1055 ft | 145 kts | 214° |
| 2026-05-07 03:16 | 40.67956 | -73.72802 | 810 ft | 144 kts | 211° |
| 2026-05-07 03:16 | 40.67113 | -73.73464 | 593 ft | 139 kts | 210° |
| 2026-05-07 03:17 | 40.66280 | -73.74116 | 471 ft | 140 kts | 208° |
| 2026-05-07 03:17 | 40.65425 | -73.74758 | 291 ft | 142 kts | 210° |
| 2026-05-07 03:17 | 40.64597 | -73.75425 | 86 ft | 137 kts | 209° |
| 2026-05-07 03:17 | 40.63842 | -73.76016 | 29 ft | 107 kts | 211° |
| 2026-05-07 03:18 | 40.63401 | -73.76360 | 26 ft | 42 kts | 210° |
| 2026-05-07 03:18 | 40.63120 | -73.76579 | 28 ft | 48 kts | 213° |
| 2026-05-07 03:18 | 40.62949 | -73.76843 | 29 ft | 26 kts | 242° |
| 2026-05-07 03:18 | 40.62971 | -73.77065 | 27 ft | 26 kts | 299° |
| 2026-05-07 03:19 | 40.63063 | -73.77268 | 31 ft | 26 kts | 301° |
| 2026-05-07 03:19 | 40.63155 | -73.77471 | 34 ft | 25 kts | 301° |
| 2026-05-07 03:19 | 40.63242 | -73.77668 | 32 ft | 25 kts | 300° |
| 2026-05-07 03:19 | 40.63332 | -73.77863 | 31 ft | 25 kts | 301° |
| 2026-05-07 03:20 | 40.63417 | -73.78061 | 28 ft | 25 kts | 299° |
| 2026-05-07 03:20 | 40.63503 | -73.78259 | 30 ft | 25 kts | 303° |
| 2026-05-07 03:20 | 40.63594 | -73.78452 | 33 ft | 25 kts | 300° |
| 2026-05-07 03:20 | 40.63681 | -73.78647 | 33 ft | 25 kts | 301° |
| 2026-05-07 03:21 | 40.63771 | -73.78841 | 31 ft | 25 kts | 301° |
| 2026-05-07 03:21 | 40.63857 | -73.79038 | 28 ft | 25 kts | 301° |
| 2026-05-07 03:21 | 40.63949 | -73.79230 | 29 ft | 25 kts | 300° |
| 2026-05-07 03:21 | 40.64030 | -73.79415 | 27 ft | 20 kts | 300° |
| 2026-05-07 03:22 | 40.64145 | -73.79506 | 28 ft | 20 kts | 358° |
| 2026-05-07 03:22 | 40.64287 | -73.79497 | 29 ft | 20 kts | 3° |
| 2026-05-07 03:22 | 40.64439 | -73.79497 | 29 ft | 24 kts | 355° |
| 2026-05-07 03:22 | 40.64612 | -73.79542 | 28 ft | 27 kts | 331° |
| 2026-05-07 03:23 | 40.64759 | -73.79673 | 28 ft | 24 kts | 331° |
| 2026-05-07 03:23 | 40.64926 | -73.79704 | 28 ft | 23 kts | 1° |
| 2026-05-07 03:23 | 40.65082 | -73.79645 | 28 ft | 24 kts | 4° |
| 2026-05-07 03:23 | 40.65242 | -73.79740 | 27 ft | 25 kts | 331° |
| 2026-05-07 03:24 | 40.65401 | -73.79776 | 29 ft | 21 kts | 0° |
| 2026-05-07 03:24 | 40.65531 | -73.79772 | 29 ft | 12 kts | 9° |
| 2026-05-07 03:24 | 40.65570 | -73.79704 | 29 ft | 10 kts | 83° |
| 2026-05-07 03:24 | 40.65572 | -73.79669 | 26 ft | 0 kts | 87° |